Cedar Run, New Jersey
Current Conditions -  °F | °C
As of 2:15 PM on Monday 20 Oct 2014 (Local Time) from KMJX Reporting Station
Clear Clear  
Wind Chill: 61°   Ceiling: Unl
Heat Index: 61°   Visibility: 10mi
Dew Point: 34°   Wind: 5mph
Humidity: 36%   Direction: 230°SW
Pressure: 30.04"   Gusts: NA
Location:  39.6605°N, 74.2864°W
Report Text: KMJX 201815Z AUTO 23004KT 10SM CLR 16/01 A3004 RMK AO1
Loading
Personal Weather Stations






























Interactive Weather Map
Tropical Storm Tracking
New forecast layout! Learn more

10-Day Weather Forecast

Advertisements
Track Severe Weather on mobile